sensor_id;sensor_type;location;lat;lon;timestamp;pressure;altitude;pressure_sealevel;temperature;humidity
54978;BME280;40873;47.522;19.106;2022-07-06T00:00:04;100204.16;;;17.86;94.97
54978;BME280;40873;47.522;19.106;2022-07-06T00:02:51;100201.09;;;17.80;95.38
54978;BME280;40873;47.522;19.106;2022-07-06T00:05:18;100202.03;;;17.70;95.65
54978;BME280;40873;47.522;19.106;2022-07-06T00:07:45;100204.72;;;17.79;95.59
54978;BME280;40873;47.522;19.106;2022-07-06T00:10:12;100200.94;;;17.82;95.02
54978;BME280;40873;47.522;19.106;2022-07-06T00:12:39;100201.34;;;17.77;95.99
54978;BME280;40873;47.522;19.106;2022-07-06T00:15:06;100198.97;;;17.84;94.92
54978;BME280;40873;47.522;19.106;2022-07-06T00:17:33;100202.03;;;17.70;95.59
54978;BME280;40873;47.522;19.106;2022-07-06T00:20:00;100200.63;;;17.66;95.70
54978;BME280;40873;47.522;19.106;2022-07-06T00:22:27;100199.66;;;17.67;95.44
54978;BME280;40873;47.522;19.106;2022-07-06T00:24:53;100199.09;;;17.63;95.69
54978;BME280;40873;47.522;19.106;2022-07-06T00:27:20;100199.38;;;17.60;95.42
54978;BME280;40873;47.522;19.106;2022-07-06T00:29:47;100199.38;;;17.60;95.67
54978;BME280;40873;47.522;19.106;2022-07-06T00:32:14;100206.97;;;17.55;96.52
54978;BME280;40873;47.522;19.106;2022-07-06T00:34:41;100213.13;;;17.65;96.20
54978;BME280;40873;47.522;19.106;2022-07-06T00:37:08;100209.34;;;17.68;95.54
54978;BME280;40873;47.522;19.106;2022-07-06T00:39:34;100217.91;;;17.62;95.39
54978;BME280;40873;47.522;19.106;2022-07-06T00:42:02;100206.94;;;17.65;94.92
54978;BME280;40873;47.522;19.106;2022-07-06T00:44:29;100212.28;;;17.55;95.86
54978;BME280;40873;47.522;19.106;2022-07-06T00:46:56;100213.00;;;17.57;95.71
54978;BME280;40873;47.522;19.106;2022-07-06T00:49:22;100207.41;;;17.60;95.56
54978;BME280;40873;47.522;19.106;2022-07-06T00:52:08;100202.59;;;17.64;95.31
54978;BME280;40873;47.522;19.106;2022-07-06T00:54:36;100200.34;;;17.49;95.80
54978;BME280;40873;47.522;19.106;2022-07-06T00:57:03;100199.81;;;17.46;96.19
54978;BME280;40873;47.522;19.106;2022-07-06T00:59:30;100197.69;;;17.49;95.31
54978;BME280;40873;47.522;19.106;2022-07-06T01:01:57;100193.63;;;17.36;96.35
54978;BME280;40873;47.522;19.106;2022-07-06T01:04:24;100184.91;;;17.43;96.25
54978;BME280;40873;47.522;19.106;2022-07-06T01:06:52;100184.78;;;17.35;97.23
54978;BME280;40873;47.522;19.106;2022-07-06T01:09:19;100195.03;;;17.49;96.00
54978;BME280;40873;47.522;19.106;2022-07-06T01:11:47;100191.53;;;17.39;96.97
54978;BME280;40873;47.522;19.106;2022-07-06T01:14:14;100188.72;;;17.41;96.55
54978;BME280;40873;47.522;19.106;2022-07-06T01:16:41;100197.41;;;17.43;96.79
54978;BME280;40873;47.522;19.106;2022-07-06T01:19:09;100198.66;;;17.29;97.66
54978;BME280;40873;47.522;19.106;2022-07-06T01:21:39;100201.47;;;17.37;97.15
54978;BME280;40873;47.522;19.106;2022-07-06T01:24:06;100194.31;;;17.28;97.39
54978;BME280;40873;47.522;19.106;2022-07-06T01:26:33;100193.75;;;17.44;97.34
54978;BME280;40873;47.522;19.106;2022-07-06T01:29:00;100193.22;;;17.40;96.46
54978;BME280;40873;47.522;19.106;2022-07-06T01:31:27;100193.91;;;17.42;96.48
54978;BME280;40873;47.522;19.106;2022-07-06T01:33:56;100196.56;;;17.33;96.68
54978;BME280;40873;47.522;19.106;2022-07-06T01:36:24;100207.94;;;17.35;96.39
54978;BME280;40873;47.522;19.106;2022-07-06T01:38:52;100211.03;;;17.40;96.68
54978;BME280;40873;47.522;19.106;2022-07-06T01:41:20;100199.25;;;17.33;96.11
54978;BME280;40873;47.522;19.106;2022-07-06T01:43:48;100199.94;;;17.35;96.50
54978;BME280;40873;47.522;19.106;2022-07-06T01:46:15;100198.53;;;17.40;95.96
54978;BME280;40873;47.522;19.106;2022-07-06T01:48:42;100205.13;;;17.36;96.08
54978;BME280;40873;47.522;19.106;2022-07-06T01:51:10;100201.19;;;17.31;96.02
54978;BME280;40873;47.522;19.106;2022-07-06T01:53:38;100203.31;;;17.27;96.56
54978;BME280;40873;47.522;19.106;2022-07-06T01:56:05;100201.34;;;17.29;96.33
54978;BME280;40873;47.522;19.106;2022-07-06T01:58:32;100210.03;;;17.31;96.11
54978;BME280;40873;47.522;19.106;2022-07-06T02:01:00;100192.94;;;17.34;95.91
54978;BME280;40873;47.522;19.106;2022-07-06T02:03:27;100183.94;;;17.25;96.29
54978;BME280;40873;47.522;19.106;2022-07-06T02:05:54;100186.31;;;17.28;96.40
54978;BME280;40873;47.522;19.106;2022-07-06T02:08:21;100185.06;;;17.32;95.64
54978;BME280;40873;47.522;19.106;2022-07-06T02:10:49;100196.41;;;17.24;96.36
54978;BME280;40873;47.522;19.106;2022-07-06T02:13:15;100198.22;;;17.24;95.94
54978;BME280;40873;47.522;19.106;2022-07-06T02:15:42;100205.53;;;17.22;96.25
54978;BME280;40873;47.522;19.106;2022-07-06T02:18:09;100221.53;;;17.22;96.25
54978;BME280;40873;47.522;19.106;2022-07-06T02:20:37;100217.63;;;17.26;95.96
54978;BME280;40873;47.522;19.106;2022-07-06T02:23:04;100220.13;;;17.37;95.27
54978;BME280;40873;47.522;19.106;2022-07-06T02:25:30;100221.69;;;17.30;95.41
54978;BME280;40873;47.522;19.106;2022-07-06T02:27:58;100215.50;;;17.20;95.86
54978;BME280;40873;47.522;19.106;2022-07-06T02:30:24;100222.94;;;17.36;95.22
54978;BME280;40873;47.522;19.106;2022-07-06T02:32:51;100230.50;;;17.31;95.39
54978;BME280;40873;47.522;19.106;2022-07-06T02:35:18;100226.31;;;17.38;95.09
54978;BME280;40873;47.522;19.106;2022-07-06T02:37:45;100226.16;;;17.20;96.19
54978;BME280;40873;47.522;19.106;2022-07-06T02:40:12;100229.81;;;17.29;95.90
54978;BME280;40873;47.522;19.106;2022-07-06T02:42:39;100232.91;;;17.34;96.06
54978;BME280;40873;47.522;19.106;2022-07-06T02:45:06;100237.56;;;17.32;95.32
54978;BME280;40873;47.522;19.106;2022-07-06T02:47:33;100249.47;;;17.18;96.36
54978;BME280;40873;47.522;19.106;2022-07-06T02:50:01;100247.03;;;17.05;97.18
54978;BME280;40873;47.522;19.106;2022-07-06T02:52:28;100244.38;;;17.15;97.01
54978;BME280;40873;47.522;19.106;2022-07-06T02:54:54;100240.44;;;17.09;97.29
54978;BME280;40873;47.522;19.106;2022-07-06T02:57:21;100244.13;;;17.18;96.53
54978;BME280;40873;47.522;19.106;2022-07-06T02:59:48;100245.38;;;17.14;96.88
54978;BME280;40873;47.522;19.106;2022-07-06T03:02:18;100248.75;;;17.16;97.46
54978;BME280;40873;47.522;19.106;2022-07-06T03:04:45;100252.69;;;17.12;97.40
54978;BME280;40873;47.522;19.106;2022-07-06T03:07:12;100254.63;;;17.10;97.38
54978;BME280;40873;47.522;19.106;2022-07-06T03:09:39;100268.09;;;17.08;98.14
54978;BME280;40873;47.522;19.106;2022-07-06T03:12:06;100254.06;;;17.06;98.26
54978;BME280;40873;47.522;19.106;2022-07-06T03:14:33;100259.25;;;17.08;97.58
54978;BME280;40873;47.522;19.106;2022-07-06T03:17:00;100255.34;;;17.12;97.96
54978;BME280;40873;47.522;19.106;2022-07-06T03:19:27;100250.13;;;17.10;97.29
54978;BME280;40873;47.522;19.106;2022-07-06T03:21:54;100253.78;;;17.09;97.93
54978;BME280;40873;47.522;19.106;2022-07-06T03:24:21;100253.53;;;17.22;97.34
54978;BME280;40873;47.522;19.106;2022-07-06T03:26:47;100257.03;;;17.13;97.80
54978;BME280;40873;47.522;19.106;2022-07-06T03:29:14;100270.50;;;17.11;97.34
54978;BME280;40873;47.522;19.106;2022-07-06T03:31:41;100270.66;;;17.19;97.14
54978;BME280;40873;47.522;19.106;2022-07-06T03:34:08;100274.59;;;17.25;97.94
54978;BME280;40873;47.522;19.106;2022-07-06T03:36:35;100269.50;;;17.12;97.25
54978;BME280;40873;47.522;19.106;2022-07-06T03:39:05;100279.63;;;17.18;97.50
54978;BME280;40873;47.522;19.106;2022-07-06T03:41:32;100281.56;;;17.16;96.70
54978;BME280;40873;47.522;19.106;2022-07-06T03:43:59;100276.53;;;17.13;97.11
54978;BME280;40873;47.522;19.106;2022-07-06T03:46:29;100281.56;;;17.16;97.02
54978;BME280;40873;47.522;19.106;2022-07-06T03:48:56;100278.88;;;17.07;97.22
54978;BME280;40873;47.522;19.106;2022-07-06T03:51:23;100273.94;;;17.02;97.81
54978;BME280;40873;47.522;19.106;2022-07-06T03:53:50;100272.41;;;16.99;97.63
54978;BME280;40873;47.522;19.106;2022-07-06T03:56:17;100277.50;;;17.12;97.63
54978;BME280;40873;47.522;19.106;2022-07-06T03:58:56;100281.41;;;17.08;96.96
54978;BME280;40873;47.522;19.106;2022-07-06T04:01:24;100278.19;;;17.05;98.03
54978;BME280;40873;47.522;19.106;2022-07-06T04:03:51;100280.97;;;17.03;97.10
54978;BME280;40873;47.522;19.106;2022-07-06T04:06:18;100273.28;;;17.10;97.04
54978;BME280;40873;47.522;19.106;2022-07-06T04:08:45;100278.34;;;17.13;96.33
54978;BME280;40873;47.522;19.106;2022-07-06T04:11:12;100269.66;;;17.11;96.76
54978;BME280;40873;47.522;19.106;2022-07-06T04:13:39;100275.94;;;17.10;96.35
54978;BME280;40873;47.522;19.106;2022-07-06T04:16:07;100273.72;;;17.15;96.00
54978;BME280;40873;47.522;19.106;2022-07-06T04:18:34;100269.66;;;17.11;96.03
54978;BME280;40873;47.522;19.106;2022-07-06T04:21:01;100268.84;;;17.30;95.36
54978;BME280;40873;47.522;19.106;2022-07-06T04:23:29;100264.22;;;17.32;95.25
54978;BME280;40873;47.522;19.106;2022-07-06T04:25:56;100262.69;;;17.58;93.25
54978;BME280;40873;47.522;19.106;2022-07-06T04:28:23;100256.09;;;17.62;92.86
54978;BME280;40873;47.522;19.106;2022-07-06T04:30:51;100266.91;;;17.70;92.26
54978;BME280;40873;47.522;19.106;2022-07-06T04:33:18;100266.53;;;17.75;91.73
54978;BME280;40873;47.522;19.106;2022-07-06T04:35:44;100269.63;;;17.90;90.29
54978;BME280;40873;47.522;19.106;2022-07-06T04:38:11;100263.69;;;17.86;90.92
54978;BME280;40873;47.522;19.106;2022-07-06T04:40:38;100268.75;;;17.99;91.33
54978;BME280;40873;47.522;19.106;2022-07-06T04:43:05;100266.59;;;18.22;89.67
54978;BME280;40873;47.522;19.106;2022-07-06T04:45:32;100263.25;;;18.29;88.10
54978;BME280;40873;47.522;19.106;2022-07-06T04:47:59;100265.50;;;18.24;88.17
54978;BME280;40873;47.522;19.106;2022-07-06T04:50:26;100274.31;;;18.34;87.93
54978;BME280;40873;47.522;19.106;2022-07-06T04:52:53;100279.91;;;18.51;87.16
54978;BME280;40873;47.522;19.106;2022-07-06T04:55:20;100288.94;;;18.40;86.90
54978;BME280;40873;47.522;19.106;2022-07-06T04:57:47;100284.28;;;18.42;87.16
54978;BME280;40873;47.522;19.106;2022-07-06T05:00:14;100291.72;;;18.48;87.08
54978;BME280;40873;47.522;19.106;2022-07-06T05:02:41;100287.94;;;18.51;86.65
54978;BME280;40873;47.522;19.106;2022-07-06T05:05:08;100281.28;;;18.55;87.01
54978;BME280;40873;47.522;19.106;2022-07-06T05:07:36;100276.22;;;18.71;85.79
54978;BME280;40873;47.522;19.106;2022-07-06T05:10:08;100277.25;;;18.88;85.29
54978;BME280;40873;47.522;19.106;2022-07-06T05:12:35;100274.78;;;19.04;84.45
54978;BME280;40873;47.522;19.106;2022-07-06T05:15:02;100274.69;;;19.24;83.79
54978;BME280;40873;47.522;19.106;2022-07-06T05:17:29;100269.41;;;19.32;82.42
54978;BME280;40873;47.522;19.106;2022-07-06T05:19:56;100274.59;;;19.15;81.52
54978;BME280;40873;47.522;19.106;2022-07-06T05:22:24;100273.19;;;19.11;82.30
54978;BME280;40873;47.522;19.106;2022-07-06T05:24:51;100298.59;;;19.25;81.67
54978;BME280;40873;47.522;19.106;2022-07-06T05:27:18;100299.88;;;19.49;81.87
54978;BME280;40873;47.522;19.106;2022-07-06T05:29:45;100307.69;;;19.60;80.51
54978;BME280;40873;47.522;19.106;2022-07-06T05:32:12;100302.28;;;19.69;79.90
54978;BME280;40873;47.522;19.106;2022-07-06T05:34:38;100295.63;;;19.91;79.54
54978;BME280;40873;47.522;19.106;2022-07-06T05:37:06;100297.00;;;19.95;78.36
54978;BME280;40873;47.522;19.106;2022-07-06T05:39:33;100304.25;;;20.21;78.69
54978;BME280;40873;47.522;19.106;2022-07-06T05:42:00;100306.69;;;20.14;77.37
54978;BME280;40873;47.522;19.106;2022-07-06T05:44:27;100310.84;;;20.09;77.31
54978;BME280;40873;47.522;19.106;2022-07-06T05:46:54;100317.81;;;20.02;78.46
54978;BME280;40873;47.522;19.106;2022-07-06T05:49:41;100317.03;;;20.27;77.26
54978;BME280;40873;47.522;19.106;2022-07-06T05:52:26;100322.31;;;20.19;77.64
54978;BME280;40873;47.522;19.106;2022-07-06T05:54:53;100331.53;;;20.42;75.67
54978;BME280;40873;47.522;19.106;2022-07-06T05:57:20;100328.00;;;20.60;75.54
54978;BME280;40873;47.522;19.106;2022-07-06T05:59:47;100332.84;;;20.82;75.64
54978;BME280;40873;47.522;19.106;2022-07-06T06:02:17;100334.88;;;20.88;74.25
54978;BME280;40873;47.522;19.106;2022-07-06T06:04:43;100343.34;;;21.01;74.59
54978;BME280;40873;47.522;19.106;2022-07-06T06:07:10;100343.88;;;21.13;73.17
54978;BME280;40873;47.522;19.106;2022-07-06T06:09:37;100336.22;;;21.26;72.59
54978;BME280;40873;47.522;19.106;2022-07-06T06:12:04;100344.00;;;21.29;72.85
54978;BME280;40873;47.522;19.106;2022-07-06T06:14:31;100338.47;;;21.31;72.54
54978;BME280;40873;47.522;19.106;2022-07-06T06:16:58;100349.88;;;21.41;72.43
54978;BME280;40873;47.522;19.106;2022-07-06T06:19:25;100345.66;;;21.30;72.05
54978;BME280;40873;47.522;19.106;2022-07-06T06:21:52;100345.66;;;21.30;71.76
54978;BME280;40873;47.522;19.106;2022-07-06T06:24:19;100345.88;;;21.37;72.63
54978;BME280;40873;47.522;19.106;2022-07-06T06:26:46;100343.88;;;21.47;71.63
54978;BME280;40873;47.522;19.106;2022-07-06T06:29:13;100340.88;;;21.50;71.67
54978;BME280;40873;47.522;19.106;2022-07-06T06:31:40;100334.97;;;21.39;71.25
54978;BME280;40873;47.522;19.106;2022-07-06T06:34:07;100337.28;;;21.33;72.00
54978;BME280;40873;47.522;19.106;2022-07-06T06:36:34;100336.16;;;21.44;71.10
54978;BME280;40873;47.522;19.106;2022-07-06T06:39:01;100348.59;;;21.53;70.94
54978;BME280;40873;47.522;19.106;2022-07-06T06:41:29;100351.09;;;21.55;71.16
54978;BME280;40873;47.522;19.106;2022-07-06T06:43:55;100341.72;;;21.59;70.39
54978;BME280;40873;47.522;19.106;2022-07-06T06:46:22;100350.16;;;21.64;70.36
54978;BME280;40873;47.522;19.106;2022-07-06T06:48:49;100353.16;;;21.69;70.44
54978;BME280;40873;47.522;19.106;2022-07-06T06:51:16;100361.41;;;21.76;69.85
54978;BME280;40873;47.522;19.106;2022-07-06T06:53:43;100367.28;;;21.71;69.45
54978;BME280;40873;47.522;19.106;2022-07-06T06:56:10;100358.00;;;21.49;69.57
54978;BME280;40873;47.522;19.106;2022-07-06T06:58:37;100358.03;;;21.74;70.41
54978;BME280;40873;47.522;19.106;2022-07-06T07:01:24;100371.53;;;22.06;69.44
54978;BME280;40873;47.522;19.106;2022-07-06T07:03:51;100373.91;;;22.09;68.57
54978;BME280;40873;47.522;19.106;2022-07-06T07:06:18;100384.16;;;22.14;68.77
54978;BME280;40873;47.522;19.106;2022-07-06T07:08:45;100365.34;;;22.30;67.93
54978;BME280;40873;47.522;19.106;2022-07-06T07:11:12;100362.16;;;22.43;68.84
54978;BME280;40873;47.522;19.106;2022-07-06T07:13:39;100364.19;;;22.49;67.39
54978;BME280;40873;47.522;19.106;2022-07-06T07:16:06;100369.22;;;22.44;67.27
54978;BME280;40873;47.522;19.106;2022-07-06T07:18:33;100370.38;;;22.58;67.38
54978;BME280;40873;47.522;19.106;2022-07-06T07:21:03;100360.94;;;22.78;68.33
54978;BME280;40873;47.522;19.106;2022-07-06T07:23:30;100357.56;;;22.92;66.10
54978;BME280;40873;47.522;19.106;2022-07-06T07:25:57;100357.75;;;22.91;66.08
54978;BME280;40873;47.522;19.106;2022-07-06T07:28:24;100363.50;;;22.88;65.95
54978;BME280;40873;47.522;19.106;2022-07-06T07:30:51;100361.44;;;22.98;65.93
54978;BME280;40873;47.522;19.106;2022-07-06T07:33:18;100366.16;;;22.96;65.77
54978;BME280;40873;47.522;19.106;2022-07-06T07:35:46;100368.16;;;23.41;64.76
54978;BME280;40873;47.522;19.106;2022-07-06T07:38:13;100365.94;;;23.53;64.18
54978;BME280;40873;47.522;19.106;2022-07-06T07:40:39;100363.28;;;23.45;63.74
54978;BME280;40873;47.522;19.106;2022-07-06T07:43:06;100371.31;;;23.61;63.48
54978;BME280;40873;47.522;19.106;2022-07-06T07:45:33;100368.88;;;23.74;63.33
54978;BME280;40873;47.522;19.106;2022-07-06T07:48:00;100375.13;;;23.98;62.24
54978;BME280;40873;47.522;19.106;2022-07-06T07:50:27;100376.84;;;23.91;61.60
54978;BME280;40873;47.522;19.106;2022-07-06T07:52:56;100368.50;;;23.77;61.06
54978;BME280;40873;47.522;19.106;2022-07-06T07:55:23;100375.19;;;23.90;61.29
54978;BME280;40873;47.522;19.106;2022-07-06T07:58:08;100376.13;;;23.97;60.66
54978;BME280;40873;47.522;19.106;2022-07-06T08:00:36;100370.28;;;24.16;59.85
54978;BME280;40873;47.522;19.106;2022-07-06T08:03:03;100379.78;;;24.35;58.08
54978;BME280;40873;47.522;19.106;2022-07-06T08:05:33;100375.25;;;24.50;59.17
54978;BME280;40873;47.522;19.106;2022-07-06T08:08:00;100377.34;;;24.63;57.56
54978;BME280;40873;47.522;19.106;2022-07-06T08:10:27;100377.16;;;24.65;58.31
54978;BME280;40873;47.522;19.106;2022-07-06T08:12:54;100377.16;;;24.79;57.03
54978;BME280;40873;47.522;19.106;2022-07-06T08:15:21;100378.84;;;24.95;56.52
54978;BME280;40873;47.522;19.106;2022-07-06T08:17:48;100376.59;;;24.69;58.01
54978;BME280;40873;47.522;19.106;2022-07-06T08:20:15;100383.22;;;24.81;55.51
54978;BME280;40873;47.522;19.106;2022-07-06T08:22:42;100381.81;;;24.71;55.52
54978;BME280;40873;47.522;19.106;2022-07-06T08:25:10;100378.19;;;24.78;56.23
54978;BME280;40873;47.522;19.106;2022-07-06T08:27:37;100381.25;;;24.75;54.26
54978;BME280;40873;47.522;19.106;2022-07-06T08:30:04;100388.22;;;25.07;55.74
54978;BME280;40873;47.522;19.106;2022-07-06T08:32:31;100390.63;;;25.32;54.39
54978;BME280;40873;47.522;19.106;2022-07-06T08:35:18;100387.34;;;25.36;52.79
54978;BME280;40873;47.522;19.106;2022-07-06T08:37:45;100388.16;;;25.52;54.68
54978;BME280;40873;47.522;19.106;2022-07-06T08:40:13;100387.13;;;25.67;53.54
54978;BME280;40873;47.522;19.106;2022-07-06T08:42:41;100389.97;;;25.95;52.12
54978;BME280;40873;47.522;19.106;2022-07-06T08:45:09;100396.16;;;25.89;51.17
54978;BME280;40873;47.522;19.106;2022-07-06T08:47:36;100391.09;;;25.86;47.59
54978;BME280;40873;47.522;19.106;2022-07-06T08:50:05;100388.81;;;26.05;50.74
54978;BME280;40873;47.522;19.106;2022-07-06T08:52:32;100392.09;;;26.00;49.59
54978;BME280;40873;47.522;19.106;2022-07-06T08:54:59;100384.38;;;26.18;49.78
54978;BME280;40873;47.522;19.106;2022-07-06T08:57:28;100390.34;;;26.14;49.68
54978;BME280;40873;47.522;19.106;2022-07-06T08:59:55;100391.19;;;26.14;48.96
54978;BME280;40873;47.522;19.106;2022-07-06T09:02:24;100392.28;;;26.20;49.61
54978;BME280;40873;47.522;19.106;2022-07-06T09:04:55;100386.63;;;26.36;48.62
54978;BME280;40873;47.522;19.106;2022-07-06T09:07:24;100379.16;;;26.60;48.84
54978;BME280;40873;47.522;19.106;2022-07-06T09:10:14;100384.72;;;26.80;46.95
54978;BME280;40873;47.522;19.106;2022-07-06T09:12:43;100380.28;;;27.00;48.27
54978;BME280;40873;47.522;19.106;2022-07-06T09:15:13;100381.28;;;26.92;48.08
54978;BME280;40873;47.522;19.106;2022-07-06T09:17:42;100387.75;;;26.98;47.67
54978;BME280;40873;47.522;19.106;2022-07-06T09:20:10;100380.06;;;27.01;47.75
54978;BME280;40873;47.522;19.106;2022-07-06T09:22:38;100367.81;;;26.71;46.20
54978;BME280;40873;47.522;19.106;2022-07-06T09:25:08;100378.38;;;26.94;47.86
54978;BME280;40873;47.522;19.106;2022-07-06T09:27:38;100379.84;;;26.96;47.14
54978;BME280;40873;47.522;19.106;2022-07-06T09:30:07;100374.78;;;27.15;46.68
54978;BME280;40873;47.522;19.106;2022-07-06T09:32:42;100375.47;;;27.30;46.37
54978;BME280;40873;47.522;19.106;2022-07-06T09:35:21;100383.59;;;27.30;45.64
54978;BME280;40873;47.522;19.106;2022-07-06T09:38:03;100377.72;;;27.20;45.03
54978;BME280;40873;47.522;19.106;2022-07-06T09:40:32;100381.56;;;27.39;45.63
54978;BME280;40873;47.522;19.106;2022-07-06T09:45:39;100387.88;;;27.52;45.57
54978;BME280;40873;47.522;19.106;2022-07-06T09:48:09;100385.81;;;27.54;45.03
54978;BME280;40873;47.522;19.106;2022-07-06T09:50:46;100376.66;;;27.62;45.13
54978;BME280;40873;47.522;19.106;2022-07-06T09:53:14;100387.72;;;27.67;43.64
54978;BME280;40873;47.522;19.106;2022-07-06T09:55:46;100393.31;;;27.59;42.63
54978;BME280;40873;47.522;19.106;2022-07-06T09:58:14;100381.34;;;27.75;44.85
54978;BME280;40873;47.522;19.106;2022-07-06T10:00:45;100391.41;;;28.01;43.28
54978;BME280;40873;47.522;19.106;2022-07-06T10:03:13;100393.91;;;28.02;41.42
54978;BME280;40873;47.522;19.106;2022-07-06T10:05:41;100378.06;;;28.06;43.17
54978;BME280;40873;47.522;19.106;2022-07-06T10:08:09;100379.75;;;28.27;44.26
54978;BME280;40873;47.522;19.106;2022-07-06T10:10:39;100378.75;;;28.34;41.45
54978;BME280;40873;47.522;19.106;2022-07-06T10:13:07;100393.38;;;28.53;40.48
54978;BME280;40873;47.522;19.106;2022-07-06T10:15:37;100387.34;;;28.45;41.01
54978;BME280;40873;47.522;19.106;2022-07-06T10:18:06;100372.03;;;28.10;41.15
54978;BME280;40873;47.522;19.106;2022-07-06T10:20:38;100374.94;;;27.96;41.92
54978;BME280;40873;47.522;19.106;2022-07-06T10:23:08;100378.81;;;27.80;41.30
54978;BME280;40873;47.522;19.106;2022-07-06T10:25:35;100372.44;;;28.07;39.96
54978;BME280;40873;47.522;19.106;2022-07-06T10:28:02;100374.88;;;27.82;42.17
54978;BME280;40873;47.522;19.106;2022-07-06T10:30:30;100381.31;;;27.81;42.54
54978;BME280;40873;47.522;19.106;2022-07-06T10:32:58;100379.50;;;28.08;42.15
54978;BME280;40873;47.522;19.106;2022-07-06T10:35:26;100374.16;;;28.35;39.09
54978;BME280;40873;47.522;19.106;2022-07-06T10:38:09;100387.72;;;28.42;38.88
54978;BME280;40873;47.522;19.106;2022-07-06T10:40:40;100379.81;;;28.66;38.85
54978;BME280;40873;47.522;19.106;2022-07-06T10:43:34;100385.63;;;28.63;40.88
54978;BME280;40873;47.522;19.106;2022-07-06T10:46:09;100387.09;;;28.92;38.75
54978;BME280;40873;47.522;19.106;2022-07-06T10:48:41;100378.25;;;29.30;39.52
54978;BME280;40873;47.522;19.106;2022-07-06T10:51:11;100378.81;;;29.52;38.01
54978;BME280;40873;47.522;19.106;2022-07-06T10:53:40;100375.75;;;29.80;38.07
54978;BME280;40873;47.522;19.106;2022-07-06T10:56:09;100385.28;;;29.44;36.58
54978;BME280;40873;47.522;19.106;2022-07-06T10:58:50;100381.31;;;29.47;36.34
54978;BME280;40873;47.522;19.106;2022-07-06T11:01:19;100383.63;;;29.43;35.79
54978;BME280;40873;47.522;19.106;2022-07-06T11:06:25;100381.06;;;30.00;33.68
54978;BME280;40873;47.522;19.106;2022-07-06T11:08:56;100375.94;;;29.85;35.46
54978;BME280;40873;47.522;19.106;2022-07-06T11:11:24;100371.34;;;29.28;34.67
54978;BME280;40873;47.522;19.106;2022-07-06T11:14:20;100372.88;;;28.77;33.33
54978;BME280;40873;47.522;19.106;2022-07-06T11:19:18;100374.28;;;29.26;33.73
54978;BME280;40873;47.522;19.106;2022-07-06T11:21:54;100377.34;;;29.49;33.95
54978;BME280;40873;47.522;19.106;2022-07-06T11:24:31;100373.84;;;29.36;31.50
54978;BME280;40873;47.522;19.106;2022-07-06T11:27:00;100372.94;;;29.55;33.16
54978;BME280;40873;47.522;19.106;2022-07-06T11:29:28;100370.16;;;29.68;31.40
54978;BME280;40873;47.522;19.106;2022-07-06T11:31:57;100376.59;;;29.74;32.17
54978;BME280;40873;47.522;19.106;2022-07-06T11:34:30;100376.59;;;29.74;32.86
54978;BME280;40873;47.522;19.106;2022-07-06T11:37:02;100375.81;;;30.37;32.04
54978;BME280;40873;47.522;19.106;2022-07-06T11:39:30;100369.41;;;29.93;29.98
54978;BME280;40873;47.522;19.106;2022-07-06T11:41:58;100377.34;;;29.94;29.17
54978;BME280;40873;47.522;19.106;2022-07-06T11:44:25;100381.41;;;30.17;27.81
54978;BME280;40873;47.522;19.106;2022-07-06T11:46:52;100369.63;;;30.23;29.63
54978;BME280;40873;47.522;19.106;2022-07-06T11:49:21;100370.56;;;30.10;30.15
54978;BME280;40873;47.522;19.106;2022-07-06T11:51:48;100380.66;;;29.96;30.52
54978;BME280;40873;47.522;19.106;2022-07-06T11:54:18;100382.41;;;29.26;31.98
54978;BME280;40873;47.522;19.106;2022-07-06T11:56:50;100393.06;;;29.28;30.25
54978;BME280;40873;47.522;19.106;2022-07-06T11:59:38;100382.91;;;29.68;30.83
54978;BME280;40873;47.522;19.106;2022-07-06T12:02:07;100377.94;;;29.58;30.79
54978;BME280;40873;47.522;19.106;2022-07-06T12:04:42;100372.00;;;29.74;31.53
54978;BME280;40873;47.522;19.106;2022-07-06T12:07:11;100375.00;;;29.60;30.22
54978;BME280;40873;47.522;19.106;2022-07-06T12:09:40;100373.13;;;29.98;31.51
54978;BME280;40873;47.522;19.106;2022-07-06T12:12:09;100376.25;;;29.64;30.71
54978;BME280;40873;47.522;19.106;2022-07-06T12:14:37;100377.44;;;29.23;30.73
54978;BME280;40873;47.522;19.106;2022-07-06T12:17:08;100381.47;;;28.74;32.63
54978;BME280;40873;47.522;19.106;2022-07-06T12:19:37;100384.63;;;28.38;30.63
54978;BME280;40873;47.522;19.106;2022-07-06T12:22:05;100384.72;;;27.97;30.96
54978;BME280;40873;47.522;19.106;2022-07-06T12:24:33;100385.78;;;28.09;31.83
54978;BME280;40873;47.522;19.106;2022-07-06T12:27:13;100383.97;;;28.69;32.19
54978;BME280;40873;47.522;19.106;2022-07-06T12:29:41;100373.41;;;29.32;30.26
54978;BME280;40873;47.522;19.106;2022-07-06T12:32:15;100374.94;;;29.73;30.31
54978;BME280;40873;47.522;19.106;2022-07-06T12:34:43;100388.38;;;29.61;30.48
54978;BME280;40873;47.522;19.106;2022-07-06T12:37:11;100383.63;;;29.57;29.22
54978;BME280;40873;47.522;19.106;2022-07-06T12:39:45;100393.41;;;29.64;29.50
54978;BME280;40873;47.522;19.106;2022-07-06T12:42:14;100383.38;;;29.96;28.75
54978;BME280;40873;47.522;19.106;2022-07-06T12:44:47;100380.06;;;30.33;28.94
54978;BME280;40873;47.522;19.106;2022-07-06T12:47:19;100379.72;;;30.47;30.26
54978;BME280;40873;47.522;19.106;2022-07-06T12:49:48;100370.84;;;29.95;28.98
54978;BME280;40873;47.522;19.106;2022-07-06T12:52:16;100371.78;;;29.76;29.18
54978;BME280;40873;47.522;19.106;2022-07-06T12:54:50;100369.75;;;30.03;29.64